sensor_id;sensor_type;location;lat;lon;timestamp;pressure;altitude;pressure_sealevel;temperature;humidity
41862;BME280;27537;57.134;-2.136;2023-11-21T00:02:26;101549.38;;;8.19;100.00
41862;BME280;27537;57.134;-2.136;2023-11-21T00:04:54;101563.38;;;8.13;100.00
41862;BME280;27537;57.134;-2.136;2023-11-21T00:07:20;101556.81;;;7.85;100.00
41862;BME280;27537;57.134;-2.136;2023-11-21T00:09:48;101573.50;;;8.33;100.00
41862;BME280;27537;57.134;-2.136;2023-11-21T00:12:14;101568.56;;;8.16;100.00
41862;BME280;27537;57.134;-2.136;2023-11-21T00:14:41;101569.31;;;8.23;100.00
41862;BME280;27537;57.134;-2.136;2023-11-21T00:17:08;101575.59;;;8.10;100.00
41862;BME280;27537;57.134;-2.136;2023-11-21T00:19:35;101595.66;;;8.05;100.00
41862;BME280;27537;57.134;-2.136;2023-11-21T00:22:02;101594.84;;;8.01;100.00
41862;BME280;27537;57.134;-2.136;2023-11-21T00:24:29;101596.75;;;7.90;100.00
41862;BME280;27537;57.134;-2.136;2023-11-21T00:26:55;101607.00;;;8.02;100.00
41862;BME280;27537;57.134;-2.136;2023-11-21T00:29:22;101616.66;;;7.94;100.00
41862;BME280;27537;57.134;-2.136;2023-11-21T00:31:49;101619.25;;;7.97;100.00
41862;BME280;27537;57.134;-2.136;2023-11-21T00:34:16;101622.59;;;8.07;100.00
41862;BME280;27537;57.134;-2.136;2023-11-21T00:36:42;101624.06;;;8.25;100.00
41862;BME280;27537;57.134;-2.136;2023-11-21T00:39:09;101618.03;;;8.23;100.00
41862;BME280;27537;57.134;-2.136;2023-11-21T00:41:36;101616.09;;;8.35;100.00
41862;BME280;27537;57.134;-2.136;2023-11-21T00:44:03;101613.78;;;8.15;100.00
41862;BME280;27537;57.134;-2.136;2023-11-21T00:46:31;101619.53;;;8.42;100.00
41862;BME280;27537;57.134;-2.136;2023-11-21T00:48:59;101620.44;;;8.38;100.00
41862;BME280;27537;57.134;-2.136;2023-11-21T00:51:25;101615.28;;;8.32;100.00
41862;BME280;27537;57.134;-2.136;2023-11-21T00:53:52;101619.66;;;8.31;100.00
41862;BME280;27537;57.134;-2.136;2023-11-21T00:56:18;101610.19;;;8.23;100.00
41862;BME280;27537;57.134;-2.136;2023-11-21T00:58:45;101619.59;;;8.36;100.00
41862;BME280;27537;57.134;-2.136;2023-11-21T01:01:16;101625.84;;;8.24;100.00
41862;BME280;27537;57.134;-2.136;2023-11-21T01:03:43;101627.66;;;8.17;100.00
41862;BME280;27537;57.134;-2.136;2023-11-21T01:06:12;101635.44;;;8.22;100.00
41862;BME280;27537;57.134;-2.136;2023-11-21T01:08:41;101615.69;;;8.04;100.00
41862;BME280;27537;57.134;-2.136;2023-11-21T01:11:08;101634.63;;;8.18;100.00
41862;BME280;27537;57.134;-2.136;2023-11-21T01:13:36;101644.41;;;8.01;100.00
41862;BME280;27537;57.134;-2.136;2023-11-21T01:16:04;101626.97;;;8.05;100.00
41862;BME280;27537;57.134;-2.136;2023-11-21T01:18:30;101635.72;;;8.01;100.00
41862;BME280;27537;57.134;-2.136;2023-11-21T01:20:57;101649.59;;;8.04;100.00
41862;BME280;27537;57.134;-2.136;2023-11-21T01:23:24;101652.13;;;8.07;100.00
41862;BME280;27537;57.134;-2.136;2023-11-21T01:25:50;101653.97;;;8.01;100.00
41862;BME280;27537;57.134;-2.136;2023-11-21T01:28:18;101631.75;;;7.67;100.00
41862;BME280;27537;57.134;-2.136;2023-11-21T01:30:46;101653.19;;;7.94;100.00
41862;BME280;27537;57.134;-2.136;2023-11-21T01:33:13;101656.66;;;7.91;100.00
41862;BME280;27537;57.134;-2.136;2023-11-21T01:35:42;101636.88;;;7.73;100.00
41862;BME280;27537;57.134;-2.136;2023-11-21T01:38:09;101661.09;;;7.86;100.00
41862;BME280;27537;57.134;-2.136;2023-11-21T01:40:36;101664.47;;;7.94;100.00
41862;BME280;27537;57.134;-2.136;2023-11-21T01:43:02;101667.09;;;7.91;100.00
41862;BME280;27537;57.134;-2.136;2023-11-21T01:45:32;101679.28;;;7.91;100.00
41862;BME280;27537;57.134;-2.136;2023-11-21T01:48:01;101669.09;;;7.69;100.00
41862;BME280;27537;57.134;-2.136;2023-11-21T01:50:29;101672.44;;;7.80;100.00
41862;BME280;27537;57.134;-2.136;2023-11-21T01:52:56;101681.16;;;7.79;100.00
41862;BME280;27537;57.134;-2.136;2023-11-21T01:55:23;101666.34;;;7.83;100.00
41862;BME280;27537;57.134;-2.136;2023-11-21T01:57:54;101671.59;;;7.77;100.00
41862;BME280;27537;57.134;-2.136;2023-11-21T02:00:22;101655.25;;;7.64;100.00
41862;BME280;27537;57.134;-2.136;2023-11-21T02:02:50;101660.69;;;7.41;100.00
41862;BME280;27537;57.134;-2.136;2023-11-21T02:05:18;101668.38;;;7.56;100.00
41862;BME280;27537;57.134;-2.136;2023-11-21T02:07:46;101676.97;;;7.63;100.00
41862;BME280;27537;57.134;-2.136;2023-11-21T02:10:19;101680.50;;;7.56;100.00
41862;BME280;27537;57.134;-2.136;2023-11-21T02:12:50;101684.84;;;7.60;100.00
41862;BME280;27537;57.134;-2.136;2023-11-21T02:15:17;101675.38;;;7.51;100.00
41862;BME280;27537;57.134;-2.136;2023-11-21T02:17:48;101692.69;;;7.54;100.00
41862;BME280;27537;57.134;-2.136;2023-11-21T02:20:22;101686.72;;;7.46;100.00
41862;BME280;27537;57.134;-2.136;2023-11-21T02:22:55;101687.75;;;7.26;100.00
41862;BME280;27537;57.134;-2.136;2023-11-21T02:25:29;101700.97;;;7.00;100.00
41862;BME280;27537;57.134;-2.136;2023-11-21T02:27:58;101692.25;;;7.06;100.00
41862;BME280;27537;57.134;-2.136;2023-11-21T02:30:25;101700.97;;;7.00;100.00
41862;BME280;27537;57.134;-2.136;2023-11-21T02:32:54;101698.31;;;7.06;100.00
41862;BME280;27537;57.134;-2.136;2023-11-21T02:35:24;101685.44;;;6.89;100.00
41862;BME280;27537;57.134;-2.136;2023-11-21T02:37:53;101695.94;;;6.75;100.00
41862;BME280;27537;57.134;-2.136;2023-11-21T02:40:20;101708.97;;;6.75;100.00
41862;BME280;27537;57.134;-2.136;2023-11-21T02:42:47;101708.13;;;6.65;100.00
41862;BME280;27537;57.134;-2.136;2023-11-21T02:45:14;101723.75;;;6.69;100.00
41862;BME280;27537;57.134;-2.136;2023-11-21T02:47:44;101723.59;;;6.92;100.00
41862;BME280;27537;57.134;-2.136;2023-11-21T02:50:11;101722.81;;;6.77;100.00
41862;BME280;27537;57.134;-2.136;2023-11-21T02:52:39;101734.94;;;6.83;100.00
41862;BME280;27537;57.134;-2.136;2023-11-21T02:55:09;101729.78;;;6.78;100.00
41862;BME280;27537;57.134;-2.136;2023-11-21T02:57:35;101724.72;;;6.49;100.00
41862;BME280;27537;57.134;-2.136;2023-11-21T03:00:02;101723.78;;;6.59;100.00
41862;BME280;27537;57.134;-2.136;2023-11-21T03:02:29;101715.97;;;6.64;100.00
41862;BME280;27537;57.134;-2.136;2023-11-21T03:04:56;101712.47;;;6.65;100.00
41862;BME280;27537;57.134;-2.136;2023-11-21T03:07:23;101716.84;;;6.64;100.00
41862;BME280;27537;57.134;-2.136;2023-11-21T03:09:50;101722.91;;;6.63;100.00
41862;BME280;27537;57.134;-2.136;2023-11-21T03:12:16;101730.84;;;6.34;100.00
41862;BME280;27537;57.134;-2.136;2023-11-21T03:14:43;101719.56;;;6.40;100.00
41862;BME280;27537;57.134;-2.136;2023-11-21T03:17:10;101729.91;;;6.47;100.00
41862;BME280;27537;57.134;-2.136;2023-11-21T03:19:37;101714.28;;;6.52;100.00
41862;BME280;27537;57.134;-2.136;2023-11-21T03:22:04;101718.66;;;6.42;100.00
41862;BME280;27537;57.134;-2.136;2023-11-21T03:24:31;101721.25;;;6.49;100.00
41862;BME280;27537;57.134;-2.136;2023-11-21T03:26:58;101706.56;;;6.35;100.00
41862;BME280;27537;57.134;-2.136;2023-11-21T03:29:25;101701.34;;;6.40;100.00
41862;BME280;27537;57.134;-2.136;2023-11-21T03:31:52;101709.16;;;6.41;100.00
41862;BME280;27537;57.134;-2.136;2023-11-21T03:34:26;101717.75;;;6.54;100.00
41862;BME280;27537;57.134;-2.136;2023-11-21T03:36:53;101715.16;;;6.50;100.00
41862;BME280;27537;57.134;-2.136;2023-11-21T03:39:20;101733.31;;;6.65;100.00
41862;BME280;27537;57.134;-2.136;2023-11-21T03:41:47;101728.09;;;6.63;100.00
41862;BME280;27537;57.134;-2.136;2023-11-21T03:44:14;101751.50;;;6.67;100.00
41862;BME280;27537;57.134;-2.136;2023-11-21T03:46:41;101748.13;;;6.51;100.00
41862;BME280;27537;57.134;-2.136;2023-11-21T03:49:07;101718.72;;;6.33;100.00
41862;BME280;27537;57.134;-2.136;2023-11-21T03:51:34;101755.13;;;6.33;100.00
41862;BME280;27537;57.134;-2.136;2023-11-21T03:54:00;101773.28;;;6.49;100.00
41862;BME280;27537;57.134;-2.136;2023-11-21T03:56:27;101762.94;;;6.39;100.00
41862;BME280;27537;57.134;-2.136;2023-11-21T03:58:54;101754.16;;;6.56;100.00
41862;BME280;27537;57.134;-2.136;2023-11-21T04:01:24;101766.22;;;6.75;100.00
41862;BME280;27537;57.134;-2.136;2023-11-21T04:03:51;101765.31;;;6.87;100.00
41862;BME280;27537;57.134;-2.136;2023-11-21T04:06:18;101789.66;;;6.74;100.00
41862;BME280;27537;57.134;-2.136;2023-11-21T04:08:45;101800.00;;;6.84;100.00
41862;BME280;27537;57.134;-2.136;2023-11-21T04:11:12;101806.06;;;6.90;100.00
41862;BME280;27537;57.134;-2.136;2023-11-21T04:13:40;101790.38;;;6.99;100.00
41862;BME280;27537;57.134;-2.136;2023-11-21T04:16:07;101789.47;;;7.06;100.00
41862;BME280;27537;57.134;-2.136;2023-11-21T04:18:38;101792.25;;;6.80;100.00
41862;BME280;27537;57.134;-2.136;2023-11-21T04:21:06;101806.91;;;6.96;100.00
41862;BME280;27537;57.134;-2.136;2023-11-21T04:23:33;101810.34;;;6.98;100.00
41862;BME280;27537;57.134;-2.136;2023-11-21T04:26:00;101820.88;;;6.80;100.00
41862;BME280;27537;57.134;-2.136;2023-11-21T04:28:28;101814.72;;;6.95;100.00
41862;BME280;27537;57.134;-2.136;2023-11-21T04:30:55;101829.50;;;6.90;100.00
41862;BME280;27537;57.134;-2.136;2023-11-21T04:33:22;101813.03;;;6.83;100.00
41862;BME280;27537;57.134;-2.136;2023-11-21T04:35:49;101822.59;;;6.79;100.00
41862;BME280;27537;57.134;-2.136;2023-11-21T04:38:16;101814.78;;;6.86;100.00
41862;BME280;27537;57.134;-2.136;2023-11-21T04:40:43;101825.22;;;6.73;100.00
41862;BME280;27537;57.134;-2.136;2023-11-21T04:43:09;101834.69;;;6.96;100.00
41862;BME280;27537;57.134;-2.136;2023-11-21T04:45:36;101839.91;;;6.90;100.00
41862;BME280;27537;57.134;-2.136;2023-11-21T04:48:03;101838.19;;;6.86;100.00
41862;BME280;27537;57.134;-2.136;2023-11-21T04:50:30;101845.97;;;6.95;100.00
41862;BME280;27537;57.134;-2.136;2023-11-21T04:52:57;101856.38;;;6.92;100.00
41862;BME280;27537;57.134;-2.136;2023-11-21T04:55:24;101851.19;;;6.90;100.00
41862;BME280;27537;57.134;-2.136;2023-11-21T04:57:50;101852.03;;;6.94;100.00
41862;BME280;27537;57.134;-2.136;2023-11-21T05:00:17;101836.47;;;6.81;100.00
41862;BME280;27537;57.134;-2.136;2023-11-21T05:02:44;101825.19;;;6.87;100.00
41862;BME280;27537;57.134;-2.136;2023-11-21T05:05:11;101828.66;;;6.84;100.00
41862;BME280;27537;57.134;-2.136;2023-11-21T05:07:41;101839.00;;;6.97;100.00
41862;BME280;27537;57.134;-2.136;2023-11-21T05:10:09;101831.25;;;6.86;100.00
41862;BME280;27537;57.134;-2.136;2023-11-21T05:12:40;101836.41;;;6.94;100.00
41862;BME280;27537;57.134;-2.136;2023-11-21T05:15:08;101842.47;;;6.97;100.00
41862;BME280;27537;57.134;-2.136;2023-11-21T05:17:39;101845.13;;;6.90;100.00
41862;BME280;27537;57.134;-2.136;2023-11-21T05:20:11;101839.00;;;6.92;100.00
41862;BME280;27537;57.134;-2.136;2023-11-21T05:22:39;101840.81;;;6.79;100.00
41862;BME280;27537;57.134;-2.136;2023-11-21T05:25:07;101844.31;;;6.75;100.00
41862;BME280;27537;57.134;-2.136;2023-11-21T05:27:35;101851.31;;;6.59;100.00
41862;BME280;27537;57.134;-2.136;2023-11-21T05:30:03;101859.16;;;6.49;100.00
41862;BME280;27537;57.134;-2.136;2023-11-21T05:32:33;101847.88;;;6.39;100.00
41862;BME280;27537;57.134;-2.136;2023-11-21T05:35:00;101860.03;;;6.34;100.00
41862;BME280;27537;57.134;-2.136;2023-11-21T05:37:27;101863.50;;;6.39;100.00
41862;BME280;27537;57.134;-2.136;2023-11-21T05:39:54;101863.53;;;6.36;100.00
41862;BME280;27537;57.134;-2.136;2023-11-21T05:42:23;101868.69;;;6.42;100.00
41862;BME280;27537;57.134;-2.136;2023-11-21T05:44:50;101862.63;;;6.43;100.00
41862;BME280;27537;57.134;-2.136;2023-11-21T05:47:16;101873.00;;;6.44;100.00
41862;BME280;27537;57.134;-2.136;2023-11-21T05:49:44;101877.38;;;6.49;100.00
41862;BME280;27537;57.134;-2.136;2023-11-21T05:52:16;101850.47;;;6.42;100.00
41862;BME280;27537;57.134;-2.136;2023-11-21T05:54:44;101861.75;;;6.44;100.00
41862;BME280;27537;57.134;-2.136;2023-11-21T05:57:10;101830.59;;;6.21;100.00
41862;BME280;27537;57.134;-2.136;2023-11-21T05:59:37;101871.31;;;6.34;100.00
41862;BME280;27537;57.134;-2.136;2023-11-21T06:02:04;101867.00;;;6.24;100.00
41862;BME280;27537;57.134;-2.136;2023-11-21T06:04:32;101867.88;;;6.12;100.00
41862;BME280;27537;57.134;-2.136;2023-11-21T06:06:58;101863.53;;;5.93;100.00
41862;BME280;27537;57.134;-2.136;2023-11-21T06:09:27;101875.72;;;5.97;100.00
41862;BME280;27537;57.134;-2.136;2023-11-21T06:11:54;101886.06;;;5.94;100.00
41862;BME280;27537;57.134;-2.136;2023-11-21T06:14:20;101895.59;;;5.92;100.00
41862;BME280;27537;57.134;-2.136;2023-11-21T06:16:48;101888.63;;;5.86;100.00
41862;BME280;27537;57.134;-2.136;2023-11-21T06:19:17;101895.63;;;5.96;100.00
41862;BME280;27537;57.134;-2.136;2023-11-21T06:21:47;101891.31;;;5.97;100.00
41862;BME280;27537;57.134;-2.136;2023-11-21T06:24:14;101907.75;;;6.10;100.00
41862;BME280;27537;57.134;-2.136;2023-11-21T06:26:41;101911.22;;;6.07;100.00
41862;BME280;27537;57.134;-2.136;2023-11-21T06:29:08;101912.97;;;6.08;100.00
41862;BME280;27537;57.134;-2.136;2023-11-21T06:31:35;101918.16;;;6.20;100.00
41862;BME280;27537;57.134;-2.136;2023-11-21T06:34:02;101930.28;;;6.23;100.00
41862;BME280;27537;57.134;-2.136;2023-11-21T06:36:29;101919.88;;;6.26;100.00
41862;BME280;27537;57.134;-2.136;2023-11-21T06:38:56;101923.34;;;6.20;100.00
41862;BME280;27537;57.134;-2.136;2023-11-21T06:41:22;101902.53;;;6.05;100.00
41862;BME280;27537;57.134;-2.136;2023-11-21T06:43:50;101926.84;;;6.16;100.00
41862;BME280;27537;57.134;-2.136;2023-11-21T06:46:16;101940.69;;;6.20;100.00
41862;BME280;27537;57.134;-2.136;2023-11-21T06:48:43;101934.59;;;6.18;100.00
41862;BME280;27537;57.134;-2.136;2023-11-21T06:51:10;101945.91;;;6.17;100.00
41862;BME280;27537;57.134;-2.136;2023-11-21T06:53:37;101945.03;;;6.21;100.00
41862;BME280;27537;57.134;-2.136;2023-11-21T06:56:14;101945.03;;;6.02;100.00
41862;BME280;27537;57.134;-2.136;2023-11-21T06:58:41;101944.16;;;6.19;100.00
41862;BME280;27537;57.134;-2.136;2023-11-21T07:01:08;101935.50;;;6.20;100.00
41862;BME280;27537;57.134;-2.136;2023-11-21T07:03:35;101932.00;;;6.19;100.00
41862;BME280;27537;57.134;-2.136;2023-11-21T07:06:04;101935.50;;;6.29;100.00
41862;BME280;27537;57.134;-2.136;2023-11-21T07:08:31;101934.63;;;6.27;100.00
41862;BME280;27537;57.134;-2.136;2023-11-21T07:10:57;101944.16;;;6.17;100.00
41862;BME280;27537;57.134;-2.136;2023-11-21T07:13:24;101944.16;;;6.17;100.00
41862;BME280;27537;57.134;-2.136;2023-11-21T07:15:51;101957.16;;;6.11;100.00
41862;BME280;27537;57.134;-2.136;2023-11-21T07:18:18;101961.50;;;6.03;100.00
41862;BME280;27537;57.134;-2.136;2023-11-21T07:20:45;101970.13;;;6.02;100.00
41862;BME280;27537;57.134;-2.136;2023-11-21T07:23:12;101978.84;;;6.04;100.00
41862;BME280;27537;57.134;-2.136;2023-11-21T07:25:39;101976.22;;;6.02;100.00
41862;BME280;27537;57.134;-2.136;2023-11-21T07:28:07;101975.34;;;6.06;100.00
41862;BME280;27537;57.134;-2.136;2023-11-21T07:30:34;101977.97;;;6.06;100.00
41862;BME280;27537;57.134;-2.136;2023-11-21T07:33:00;101999.66;;;6.16;100.00
41862;BME280;27537;57.134;-2.136;2023-11-21T07:35:27;101994.44;;;6.19;100.00
41862;BME280;27537;57.134;-2.136;2023-11-21T07:37:54;102003.09;;;6.11;100.00
41862;BME280;27537;57.134;-2.136;2023-11-21T07:40:20;101984.88;;;6.12;100.00
41862;BME280;27537;57.134;-2.136;2023-11-21T07:42:49;101956.28;;;6.04;100.00
41862;BME280;27537;57.134;-2.136;2023-11-21T07:45:16;101989.25;;;6.27;100.00
41862;BME280;27537;57.134;-2.136;2023-11-21T07:47:43;101984.91;;;6.18;100.00
41862;BME280;27537;57.134;-2.136;2023-11-21T07:50:10;101983.19;;;6.22;100.00
41862;BME280;27537;57.134;-2.136;2023-11-21T07:52:37;101969.31;;;6.17;100.00
41862;BME280;27537;57.134;-2.136;2023-11-21T07:55:04;101957.16;;;6.05;100.00
41862;BME280;27537;57.134;-2.136;2023-11-21T07:57:30;101963.25;;;6.15;100.00
41862;BME280;27537;57.134;-2.136;2023-11-21T07:59:57;101971.03;;;6.18;100.00
41862;BME280;27537;57.134;-2.136;2023-11-21T08:02:24;101961.50;;;6.07;100.00
41862;BME280;27537;57.134;-2.136;2023-11-21T08:04:52;101971.84;;;5.95;100.00
41862;BME280;27537;57.134;-2.136;2023-11-21T08:07:19;101978.81;;;5.99;100.00
41862;BME280;27537;57.134;-2.136;2023-11-21T08:09:46;101989.22;;;6.08;100.00
41862;BME280;27537;57.134;-2.136;2023-11-21T08:12:14;101992.69;;;6.12;100.00
41862;BME280;27537;57.134;-2.136;2023-11-21T08:14:41;101978.81;;;6.10;100.00
41862;BME280;27537;57.134;-2.136;2023-11-21T08:17:08;101990.09;;;6.21;100.00
41862;BME280;27537;57.134;-2.136;2023-11-21T08:19:36;101983.16;;;6.20;100.00
41862;BME280;27537;57.134;-2.136;2023-11-21T08:22:04;101997.91;;;6.20;100.00
41862;BME280;27537;57.134;-2.136;2023-11-21T08:24:30;102010.91;;;6.15;100.00
41862;BME280;27537;57.134;-2.136;2023-11-21T08:26:57;102007.44;;;6.18;100.00
41862;BME280;27537;57.134;-2.136;2023-11-21T08:29:24;102006.59;;;6.13;100.00
41862;BME280;27537;57.134;-2.136;2023-11-21T08:31:51;102010.03;;;6.18;100.00
41862;BME280;27537;57.134;-2.136;2023-11-21T08:34:18;102003.97;;;6.11;100.00
41862;BME280;27537;57.134;-2.136;2023-11-21T08:36:45;101999.63;;;6.12;100.00
41862;BME280;27537;57.134;-2.136;2023-11-21T08:39:12;102012.63;;;6.07;100.00
41862;BME280;27537;57.134;-2.136;2023-11-21T08:41:39;102003.91;;;5.93;100.00
41862;BME280;27537;57.134;-2.136;2023-11-21T08:44:06;102023.81;;;5.89;100.00
41862;BME280;27537;57.134;-2.136;2023-11-21T08:46:33;102019.50;;;5.85;100.00
41862;BME280;27537;57.134;-2.136;2023-11-21T08:49:01;102024.69;;;5.94;100.00
41862;BME280;27537;57.134;-2.136;2023-11-21T08:51:28;102027.34;;;5.99;100.00
41862;BME280;27537;57.134;-2.136;2023-11-21T08:53:54;102026.47;;;6.09;100.00
41862;BME280;27537;57.134;-2.136;2023-11-21T08:56:25;102023.03;;;6.02;100.00
41862;BME280;27537;57.134;-2.136;2023-11-21T08:58:52;102010.84;;;5.95;100.00
41862;BME280;27537;57.134;-2.136;2023-11-21T09:01:19;102032.56;;;6.00;100.00
41862;BME280;27537;57.134;-2.136;2023-11-21T09:03:46;102014.28;;;5.93;100.00
41862;BME280;27537;57.134;-2.136;2023-11-21T09:06:12;102020.34;;;5.95;100.00
41862;BME280;27537;57.134;-2.136;2023-11-21T09:08:40;102024.75;;;6.03;100.00
41862;BME280;27537;57.134;-2.136;2023-11-21T09:11:08;102023.91;;;6.07;100.00
41862;BME280;27537;57.134;-2.136;2023-11-21T09:13:35;102021.31;;;6.06;100.00
41862;BME280;27537;57.134;-2.136;2023-11-21T09:16:02;102024.78;;;6.19;100.00
41862;BME280;27537;57.134;-2.136;2023-11-21T09:18:29;102013.53;;;6.20;100.00
41862;BME280;27537;57.134;-2.136;2023-11-21T09:20:57;102003.97;;;6.08;100.00
41862;BME280;27537;57.134;-2.136;2023-11-21T09:23:24;102022.19;;;6.19;100.00
41862;BME280;27537;57.134;-2.136;2023-11-21T09:25:51;102006.59;;;6.23;100.00
41862;BME280;27537;57.134;-2.136;2023-11-21T09:28:18;102004.84;;;6.36;100.00
41862;BME280;27537;57.134;-2.136;2023-11-21T09:30:45;102018.72;;;6.52;100.00
41862;BME280;27537;57.134;-2.136;2023-11-21T09:33:11;101998.78;;;6.43;100.00
41862;BME280;27537;57.134;-2.136;2023-11-21T09:35:38;102025.66;;;6.61;100.00
41862;BME280;27537;57.134;-2.136;2023-11-21T09:38:05;102034.34;;;6.77;100.00
41862;BME280;27537;57.134;-2.136;2023-11-21T09:40:37;102042.13;;;6.88;100.00
41862;BME280;27537;57.134;-2.136;2023-11-21T09:43:06;102050.72;;;7.22;100.00
41862;BME280;27537;57.134;-2.136;2023-11-21T09:45:35;102039.47;;;7.12;100.00
41862;BME280;27537;57.134;-2.136;2023-11-21T09:48:02;102037.72;;;7.14;100.00
41862;BME280;27537;57.134;-2.136;2023-11-21T09:50:29;102045.50;;;7.28;100.00
41862;BME280;27537;57.134;-2.136;2023-11-21T09:55:46;102061.94;;;7.55;100.00
41862;BME280;27537;57.134;-2.136;2023-11-21T09:58:14;102064.53;;;7.56;100.00
41862;BME280;27537;57.134;-2.136;2023-11-21T10:00:45;102058.44;;;7.59;100.00
41862;BME280;27537;57.134;-2.136;2023-11-21T10:03:13;102070.56;;;7.66;100.00
41862;BME280;27537;57.134;-2.136;2023-11-21T10:05:44;102050.63;;;7.56;100.00
41862;BME280;27537;57.134;-2.136;2023-11-21T10:08:13;102061.81;;;7.78;100.00
41862;BME280;27537;57.134;-2.136;2023-11-21T10:10:43;102067.88;;;7.83;100.00
41862;BME280;27537;57.134;-2.136;2023-11-21T10:13:17;102071.34;;;7.82;100.00
41862;BME280;27537;57.134;-2.136;2023-11-21T10:15:52;102058.19;;;8.04;100.00
41862;BME280;27537;57.134;-2.136;2023-11-21T10:18:20;102067.72;;;8.15;100.00
41862;BME280;27537;57.134;-2.136;2023-11-21T10:20:49;102064.19;;;8.21;100.00
41862;BME280;27537;57.134;-2.136;2023-11-21T10:23:23;102051.19;;;8.18;100.00
41862;BME280;27537;57.134;-2.136;2023-11-21T10:25:52;102045.88;;;8.29;100.00
41862;BME280;27537;57.134;-2.136;2023-11-21T10:28:20;102051.91;;;8.37;100.00
41862;BME280;27537;57.134;-2.136;2023-11-21T10:30:48;102026.03;;;8.03;100.00
41862;BME280;27537;57.134;-2.136;2023-11-21T10:33:14;102055.50;;;8.17;100.00
41862;BME280;27537;57.134;-2.136;2023-11-21T10:38:08;102038.00;;;8.36;100.00
41862;BME280;27537;57.134;-2.136;2023-11-21T10:40:40;102025.88;;;8.26;100.00
41862;BME280;27537;57.134;-2.136;2023-11-21T10:43:09;102040.56;;;8.43;100.00
41862;BME280;27537;57.134;-2.136;2023-11-21T10:45:37;102012.78;;;8.34;100.00
41862;BME280;27537;57.134;-2.136;2023-11-21T10:48:08;102007.47;;;8.46;100.00
41862;BME280;27537;57.134;-2.136;2023-11-21T10:50:35;102017.91;;;8.51;100.00
41862;BME280;27537;57.134;-2.136;2023-11-21T10:53:05;102027.31;;;8.67;100.00
41862;BME280;27537;57.134;-2.136;2023-11-21T10:55:33;102029.88;;;8.73;100.00
41862;BME280;27537;57.134;-2.136;2023-11-21T10:58:04;102027.38;;;8.64;100.00
41862;BME280;27537;57.134;-2.136;2023-11-21T11:00:33;102025.63;;;8.62;100.00
41862;BME280;27537;57.134;-2.136;2023-11-21T11:03:00;102027.41;;;8.60;100.00
41862;BME280;27537;57.134;-2.136;2023-11-21T11:05:29;102017.06;;;8.46;100.00
41862;BME280;27537;57.134;-2.136;2023-11-21T11:08:05;102017.78;;;8.65;100.00
41862;BME280;27537;57.134;-2.136;2023-11-21T11:10:34;101999.59;;;8.55;100.00
41862;BME280;27537;57.134;-2.136;2023-11-21T11:13:01;102015.09;;;8.71;100.00
41862;BME280;27537;57.134;-2.136;2023-11-21T11:15:28;102015.97;;;8.73;100.00
41862;BME280;27537;57.134;-2.136;2023-11-21T11:17:55;102019.38;;;8.78;100.00
41862;BME280;27537;57.134;-2.136;2023-11-21T11:20:27;102004.63;;;8.76;100.00
41862;BME280;27537;57.134;-2.136;2023-11-21T11:26:24;101998.47;;;8.81;100.00
41862;BME280;27537;57.134;-2.136;2023-11-21T11:29:08;101994.06;;;8.86;100.00
41862;BME280;27537;57.134;-2.136;2023-11-21T11:32:11;101996.69;;;8.85;100.00
41862;BME280;27537;57.134;-2.136;2023-11-21T11:37:27;101992.22;;;8.96;100.00
41862;BME280;27537;57.134;-2.136;2023-11-21T11:39:54;101981.25;;;8.63;100.00
41862;BME280;27537;57.134;-2.136;2023-11-21T11:42:21;101990.81;;;8.64;100.00
41862;BME280;27537;57.134;-2.136;2023-11-21T11:44:50;101987.16;;;8.81;100.00
41862;BME280;27537;57.134;-2.136;2023-11-21T11:50:12;101972.31;;;8.86;100.00
41862;BME280;27537;57.134;-2.136;2023-11-21T11:52:52;101962.81;;;8.79;100.00
41862;BME280;27537;57.134;-2.136;2023-11-21T11:55:23;101961.09;;;8.76;100.00
41862;BME280;27537;57.134;-2.136;2023-11-21T11:57:51;101961.91;;;8.80;100.00
41862;BME280;27537;57.134;-2.136;2023-11-21T12:02:50;101981.94;;;8.82;100.00
41862;BME280;27537;57.134;-2.136;2023-11-21T12:05:22;101983.72;;;8.79;100.00
41862;BME280;27537;57.134;-2.136;2023-11-21T12:07:59;101997.53;;;8.87;100.00
41862;BME280;27537;57.134;-2.136;2023-11-21T12:10:28;101988.97;;;8.71;100.00
41862;BME280;27537;57.134;-2.136;2023-11-21T12:12:57;101990.03;;;8.54;100.00
41862;BME280;27537;57.134;-2.136;2023-11-21T12:15:25;101972.53;;;8.64;100.00
41862;BME280;27537;57.134;-2.136;2023-11-21T12:17:52;101993.44;;;8.60;100.00
41862;BME280;27537;57.134;-2.136;2023-11-21T12:20:21;101974.25;;;8.64;100.00
41862;BME280;27537;57.134;-2.136;2023-11-21T12:22:51;101968.34;;;8.42;100.00
41862;BME280;27537;57.134;-2.136;2023-11-21T12:25:26;101983.03;;;8.55;100.00
41862;BME280;27537;57.134;-2.136;2023-11-21T12:27:59;101986.59;;;8.48;100.00
41862;BME280;27537;57.134;-2.136;2023-11-21T12:30:30;101984.78;;;8.54;100.00
41862;BME280;27537;57.134;-2.136;2023-11-21T12:32:59;101984.88;;;8.48;100.00
41862;BME280;27537;57.134;-2.136;2023-11-21T12:35:33;101970.22;;;8.29;100.00
41862;BME280;27537;57.134;-2.136;2023-11-21T12:38:02;101980.50;;;8.50;100.00
41862;BME280;27537;57.134;-2.136;2023-11-21T12:40:32;101963.97;;;8.50;100.00
41862;BME280;27537;57.134;-2.136;2023-11-21T12:43:00;101934.75;;;8.05;100.00
41862;BME280;27537;57.134;-2.136;2023-11-21T12:45:28;101976.28;;;8.32;100.00
41862;BME280;27537;57.134;-2.136;2023-11-21T12:47:57;101961.38;;;8.47;100.00
41862;BME280;27537;57.134;-2.136;2023-11-21T12:50:28;101971.72;;;8.58;100.00
41862;BME280;27537;57.134;-2.136;2023-11-21T12:55:30;101977.06;;;8.45;100.00
41862;BME280;27537;57.134;-2.136;2023-11-21T12:57:57;101974.38;;;8.53;100.00
41862;BME280;27537;57.134;-2.136;2023-11-21T13:00:44;101976.00;;;8.63;100.00
41862;BME280;27537;57.134;-2.136;2023-11-21T13:03:14;101962.94;;;8.65;100.00
41862;BME280;27537;57.134;-2.136;2023-11-21T13:05:47;101955.09;;;8.66;100.00